sensor_id;sensor_type;location;lat;lon;timestamp;pressure;altitude;pressure_sealevel;temperature;humidity
43147;BME280;28752;48.266;7.402;2023-05-24T00:02:18;99703.59;;;15.27;58.15
43147;BME280;28752;48.266;7.402;2023-05-24T00:04:44;99716.56;;;15.39;57.47
43147;BME280;28752;48.266;7.402;2023-05-24T00:07:10;99707.88;;;15.45;57.07
43147;BME280;28752;48.266;7.402;2023-05-24T00:09:35;99704.53;;;15.35;57.01
43147;BME280;28752;48.266;7.402;2023-05-24T00:12:00;99705.22;;;15.28;56.87
43147;BME280;28752;48.266;7.402;2023-05-24T00:14:26;99712.72;;;15.41;56.45
43147;BME280;28752;48.266;7.402;2023-05-24T00:16:51;99707.38;;;15.41;56.08
43147;BME280;28752;48.266;7.402;2023-05-24T00:19:17;99713.53;;;15.50;55.80
43147;BME280;28752;48.266;7.402;2023-05-24T00:21:45;99702.34;;;15.46;55.71
43147;BME280;28752;48.266;7.402;2023-05-24T00:24:11;99703.19;;;15.47;55.39
43147;BME280;28752;48.266;7.402;2023-05-24T00:26:36;99703.00;;;15.57;55.49
43147;BME280;28752;48.266;7.402;2023-05-24T00:29:02;99713.97;;;15.70;55.14
43147;BME280;28752;48.266;7.402;2023-05-24T00:31:27;99707.22;;;15.35;55.54
43147;BME280;28752;48.266;7.402;2023-05-24T00:33:52;99712.06;;;15.31;55.94
43147;BME280;28752;48.266;7.402;2023-05-24T00:36:18;99712.03;;;15.39;55.29
43147;BME280;28752;48.266;7.402;2023-05-24T00:38:43;99710.75;;;15.19;55.95
43147;BME280;28752;48.266;7.402;2023-05-24T00:41:09;99705.09;;;15.22;56.06
43147;BME280;28752;48.266;7.402;2023-05-24T00:43:35;99720.72;;;15.33;55.93
43147;BME280;28752;48.266;7.402;2023-05-24T00:48:48;99712.41;;;15.28;56.19
43147;BME280;28752;48.266;7.402;2023-05-24T00:51:15;99701.59;;;15.21;56.22
43147;BME280;28752;48.266;7.402;2023-05-24T00:53:44;99709.44;;;15.15;56.15
43147;BME280;28752;48.266;7.402;2023-05-24T00:56:11;99709.44;;;15.15;56.13
43147;BME280;28752;48.266;7.402;2023-05-24T00:58:37;99707.78;;;15.05;56.30
43147;BME280;28752;48.266;7.402;2023-05-24T01:01:03;99707.09;;;15.20;56.07
43147;BME280;28752;48.266;7.402;2023-05-24T01:03:29;99712.25;;;15.13;55.93
43147;BME280;28752;48.266;7.402;2023-05-24T01:05:59;99706.41;;;15.18;55.47
43147;BME280;28752;48.266;7.402;2023-05-24T01:25:01;99686.94;;;15.17;53.32
43147;BME280;28752;48.266;7.402;2023-05-24T01:27:28;99686.59;;;15.04;53.55
43147;BME280;28752;48.266;7.402;2023-05-24T01:29:55;99679.09;;;15.07;53.20
43147;BME280;28752;48.266;7.402;2023-05-24T01:32:20;99673.41;;;15.19;52.82
43147;BME280;28752;48.266;7.402;2023-05-24T01:34:46;99674.25;;;15.27;52.17
43147;BME280;28752;48.266;7.402;2023-05-24T01:37:12;99675.13;;;15.03;52.71
43147;BME280;28752;48.266;7.402;2023-05-24T01:39:38;99678.94;;;15.17;52.09
43147;BME280;28752;48.266;7.402;2023-05-24T01:42:18;99676.41;;;15.07;51.88
43147;BME280;28752;48.266;7.402;2023-05-24T01:45:24;99680.97;;;14.99;52.22
43147;BME280;28752;48.266;7.402;2023-05-24T01:48:15;99683.97;;;14.79;52.23
43147;BME280;28752;48.266;7.402;2023-05-24T01:51:09;99672.28;;;14.88;51.53
43147;BME280;28752;48.266;7.402;2023-05-24T01:53:40;99667.94;;;15.04;51.43
43147;BME280;28752;48.266;7.402;2023-05-24T01:56:10;99665.06;;;15.14;51.65
43147;BME280;28752;48.266;7.402;2023-05-24T01:58:39;99670.97;;;14.92;52.19
43147;BME280;28752;48.266;7.402;2023-05-24T02:01:06;99675.78;;;14.97;52.04
43147;BME280;28752;48.266;7.402;2023-05-24T02:03:32;99668.44;;;14.99;52.33
43147;BME280;28752;48.266;7.402;2023-05-24T02:05:58;99677.97;;;14.85;52.45
43147;BME280;28752;48.266;7.402;2023-05-24T02:08:23;99672.13;;;14.82;52.73
43147;BME280;28752;48.266;7.402;2023-05-24T02:10:48;99676.28;;;14.84;52.83
43147;BME280;28752;48.266;7.402;2023-05-24T02:13:14;99673.13;;;14.89;53.04
43147;BME280;28752;48.266;7.402;2023-05-24T02:15:42;99678.63;;;14.87;53.00
43147;BME280;28752;48.266;7.402;2023-05-24T02:18:09;99675.47;;;14.67;53.59
43147;BME280;28752;48.266;7.402;2023-05-24T02:20:35;99680.78;;;14.84;52.93
43147;BME280;28752;48.266;7.402;2023-05-24T02:23:04;99672.44;;;14.79;53.24
43147;BME280;28752;48.266;7.402;2023-05-24T02:25:30;99674.63;;;14.75;53.38
43147;BME280;28752;48.266;7.402;2023-05-24T02:27:57;99678.44;;;14.72;53.91
43147;BME280;28752;48.266;7.402;2023-05-24T02:30:22;99667.63;;;14.66;54.26
43147;BME280;28752;48.266;7.402;2023-05-24T02:32:48;99662.63;;;14.71;54.29
43147;BME280;28752;48.266;7.402;2023-05-24T02:35:13;99669.13;;;14.77;54.52
43147;BME280;28752;48.266;7.402;2023-05-24T02:37:38;99665.63;;;14.68;54.76
43147;BME280;28752;48.266;7.402;2023-05-24T02:40:05;99661.09;;;14.60;55.42
43147;BME280;28752;48.266;7.402;2023-05-24T02:42:30;99668.44;;;14.58;55.43
43147;BME280;28752;48.266;7.402;2023-05-24T02:44:56;99655.94;;;14.58;55.76
43147;BME280;28752;48.266;7.402;2023-05-24T02:47:21;99665.31;;;14.63;55.47
43147;BME280;28752;48.266;7.402;2023-05-24T02:49:46;99667.16;;;14.62;55.71
43147;BME280;28752;48.266;7.402;2023-05-24T02:52:12;99660.47;;;14.66;55.72
43147;BME280;28752;48.266;7.402;2023-05-24T02:54:38;99673.63;;;14.68;55.28
43147;BME280;28752;48.266;7.402;2023-05-24T02:57:04;99667.44;;;14.59;55.58
43147;BME280;28752;48.266;7.402;2023-05-24T02:59:31;99662.81;;;14.61;55.67
43147;BME280;28752;48.266;7.402;2023-05-24T03:01:57;99662.09;;;14.51;55.50
43147;BME280;28752;48.266;7.402;2023-05-24T03:04:23;99666.28;;;14.62;55.31
43147;BME280;28752;48.266;7.402;2023-05-24T03:06:48;99661.59;;;14.39;55.52
43147;BME280;28752;48.266;7.402;2023-05-24T03:09:13;99657.94;;;14.40;55.49
43147;BME280;28752;48.266;7.402;2023-05-24T03:11:41;99659.94;;;14.38;55.24
43147;BME280;28752;48.266;7.402;2023-05-24T03:14:06;99657.09;;;14.48;55.39
43147;BME280;28752;48.266;7.402;2023-05-24T03:16:34;99651.63;;;14.41;55.45
43147;BME280;28752;48.266;7.402;2023-05-24T03:18:59;99657.25;;;14.30;55.95
43147;BME280;28752;48.266;7.402;2023-05-24T03:21:25;99657.06;;;14.23;56.08
43147;BME280;28752;48.266;7.402;2023-05-24T03:23:51;99655.75;;;14.44;55.80
43147;BME280;28752;48.266;7.402;2023-05-24T03:26:16;99658.88;;;14.22;56.32
43147;BME280;28752;48.266;7.402;2023-05-24T03:28:43;99656.59;;;14.28;56.13
43147;BME280;28752;48.266;7.402;2023-05-24T03:31:09;99665.06;;;14.31;56.17
43147;BME280;28752;48.266;7.402;2023-05-24T03:33:34;99648.25;;;14.22;56.16
43147;BME280;28752;48.266;7.402;2023-05-24T03:36:00;99656.88;;;14.16;56.45
43147;BME280;28752;48.266;7.402;2023-05-24T03:38:26;99673.03;;;14.15;56.40
43147;BME280;28752;48.266;7.402;2023-05-24T03:40:52;99669.09;;;14.27;56.45
43147;BME280;28752;48.266;7.402;2023-05-24T03:43:17;99672.72;;;14.34;56.57
43147;BME280;28752;48.266;7.402;2023-05-24T03:45:42;99681.75;;;14.33;56.31
43147;BME280;28752;48.266;7.402;2023-05-24T03:48:08;99684.53;;;14.15;56.63
43147;BME280;28752;48.266;7.402;2023-05-24T03:50:33;99691.34;;;14.18;56.47
43147;BME280;28752;48.266;7.402;2023-05-24T03:52:59;99688.03;;;14.24;56.32
43147;BME280;28752;48.266;7.402;2023-05-24T03:55:24;99675.88;;;14.21;56.82
43147;BME280;28752;48.266;7.402;2023-05-24T03:57:50;99680.53;;;14.19;56.55
43147;BME280;28752;48.266;7.402;2023-05-24T04:00:15;99677.69;;;14.13;56.55
43147;BME280;28752;48.266;7.402;2023-05-24T04:02:40;99681.38;;;14.20;56.50
43147;BME280;28752;48.266;7.402;2023-05-24T04:05:07;99689.53;;;14.18;56.30
43147;BME280;28752;48.266;7.402;2023-05-24T04:07:36;99683.34;;;14.18;56.48
43147;BME280;28752;48.266;7.402;2023-05-24T04:10:05;99685.84;;;14.03;56.92
43147;BME280;28752;48.266;7.402;2023-05-24T04:12:31;99679.00;;;14.09;56.64
43147;BME280;28752;48.266;7.402;2023-05-24T04:14:57;99680.69;;;14.18;56.59
43147;BME280;28752;48.266;7.402;2023-05-24T04:17:23;99683.81;;;13.97;56.74
43147;BME280;28752;48.266;7.402;2023-05-24T04:19:52;99685.53;;;14.22;56.44
43147;BME280;28752;48.266;7.402;2023-05-24T04:22:17;99681.38;;;14.20;56.42
43147;BME280;28752;48.266;7.402;2023-05-24T04:24:43;99676.81;;;14.04;56.34
43147;BME280;28752;48.266;7.402;2023-05-24T04:27:09;99682.84;;;14.06;56.45
43147;BME280;28752;48.266;7.402;2023-05-24T04:29:35;99683.16;;;14.03;56.64
43147;BME280;28752;48.266;7.402;2023-05-24T04:32:00;99675.69;;;14.15;56.01
43147;BME280;28752;48.266;7.402;2023-05-24T04:34:27;99681.66;;;14.09;56.48
43147;BME280;28752;48.266;7.402;2023-05-24T04:36:54;99693.78;;;13.95;56.78
43147;BME280;28752;48.266;7.402;2023-05-24T04:39:19;99686.31;;;14.07;56.26
43147;BME280;28752;48.266;7.402;2023-05-24T04:41:45;99692.03;;;14.20;56.01
43147;BME280;28752;48.266;7.402;2023-05-24T04:44:10;99698.53;;;14.26;56.30
43147;BME280;28752;48.266;7.402;2023-05-24T04:46:35;99697.28;;;13.95;56.11
43147;BME280;28752;48.266;7.402;2023-05-24T04:49:01;99700.94;;;14.02;56.48
43147;BME280;28752;48.266;7.402;2023-05-24T04:51:26;99699.25;;;13.93;56.34
43147;BME280;28752;48.266;7.402;2023-05-24T04:53:52;99694.00;;;14.10;56.14
43147;BME280;28752;48.266;7.402;2023-05-24T04:56:17;99694.81;;;14.02;56.30
43147;BME280;28752;48.266;7.402;2023-05-24T04:58:43;99704.94;;;13.98;56.17
43147;BME280;28752;48.266;7.402;2023-05-24T05:01:09;99699.81;;;14.05;55.85
43147;BME280;28752;48.266;7.402;2023-05-24T05:03:34;99707.28;;;14.01;56.12
43147;BME280;28752;48.266;7.402;2023-05-24T05:05:59;99705.28;;;14.03;55.44
43147;BME280;28752;48.266;7.402;2023-05-24T05:08:25;99709.59;;;13.96;55.73
43147;BME280;28752;48.266;7.402;2023-05-24T05:10:50;99704.25;;;13.96;55.15
43147;BME280;28752;48.266;7.402;2023-05-24T05:13:16;99720.94;;;14.07;55.40
43147;BME280;28752;48.266;7.402;2023-05-24T05:15:41;99716.66;;;13.79;55.46
43147;BME280;28752;48.266;7.402;2023-05-24T05:18:07;99718.28;;;13.72;55.75
43147;BME280;28752;48.266;7.402;2023-05-24T05:20:32;99712.41;;;13.95;55.43
43147;BME280;28752;48.266;7.402;2023-05-24T05:22:58;99718.13;;;14.16;55.01
43147;BME280;28752;48.266;7.402;2023-05-24T05:25:23;99713.44;;;14.02;54.90
43147;BME280;28752;48.266;7.402;2023-05-24T05:27:48;99716.53;;;14.32;54.43
43147;BME280;28752;48.266;7.402;2023-05-24T05:30:14;99723.88;;;14.38;54.36
43147;BME280;28752;48.266;7.402;2023-05-24T05:32:40;99716.59;;;14.06;54.91
43147;BME280;28752;48.266;7.402;2023-05-24T05:35:05;99721.25;;;14.03;54.47
43147;BME280;28752;48.266;7.402;2023-05-24T05:37:31;99723.94;;;14.03;54.43
43147;BME280;28752;48.266;7.402;2023-05-24T05:39:56;99716.47;;;14.15;54.82
43147;BME280;28752;48.266;7.402;2023-05-24T05:42:22;99712.41;;;13.95;54.90
43147;BME280;28752;48.266;7.402;2023-05-24T05:44:47;99708.38;;;13.91;55.11
43147;BME280;28752;48.266;7.402;2023-05-24T05:47:12;99714.97;;;14.13;55.05
43147;BME280;28752;48.266;7.402;2023-05-24T05:49:38;99723.00;;;14.37;54.58
43147;BME280;28752;48.266;7.402;2023-05-24T05:52:04;99724.44;;;14.07;54.71
43147;BME280;28752;48.266;7.402;2023-05-24T05:54:30;99725.63;;;14.13;54.72
43147;BME280;28752;48.266;7.402;2023-05-24T05:56:55;99723.28;;;14.10;54.65
43147;BME280;28752;48.266;7.402;2023-05-24T05:59:21;99710.22;;;13.90;54.80
43147;BME280;28752;48.266;7.402;2023-05-24T06:01:46;99711.44;;;14.04;54.99
43147;BME280;28752;48.266;7.402;2023-05-24T06:04:15;99715.28;;;14.01;54.85
43147;BME280;28752;48.266;7.402;2023-05-24T06:06:41;99724.59;;;14.06;54.83
43147;BME280;28752;48.266;7.402;2023-05-24T06:09:06;99715.28;;;14.10;54.58
43147;BME280;28752;48.266;7.402;2023-05-24T06:11:32;99710.13;;;14.00;54.68
43147;BME280;28752;48.266;7.402;2023-05-24T06:13:57;99711.81;;;14.17;54.51
43147;BME280;28752;48.266;7.402;2023-05-24T06:16:23;99712.69;;;14.34;54.44
43147;BME280;28752;48.266;7.402;2023-05-24T06:18:48;99721.47;;;14.18;53.90
43147;BME280;28752;48.266;7.402;2023-05-24T06:21:14;99721.00;;;14.31;54.38
43147;BME280;28752;48.266;7.402;2023-05-24T06:23:40;99729.84;;;14.40;54.23
43147;BME280;28752;48.266;7.402;2023-05-24T06:26:05;99726.09;;;14.08;53.69
43147;BME280;28752;48.266;7.402;2023-05-24T06:28:35;99728.59;;;14.10;53.94
43147;BME280;28752;48.266;7.402;2023-05-24T06:31:01;99736.19;;;13.96;54.02
43147;BME280;28752;48.266;7.402;2023-05-24T06:33:27;99729.16;;;14.21;53.65
43147;BME280;28752;48.266;7.402;2023-05-24T06:35:52;99741.50;;;13.88;54.19
43147;BME280;28752;48.266;7.402;2023-05-24T06:38:18;99736.69;;;13.92;54.11
43147;BME280;28752;48.266;7.402;2023-05-24T06:40:43;99735.56;;;14.02;54.31
43147;BME280;28752;48.266;7.402;2023-05-24T06:43:09;99742.78;;;14.18;53.61
43147;BME280;28752;48.266;7.402;2023-05-24T06:45:34;99743.50;;;14.29;53.84
43147;BME280;28752;48.266;7.402;2023-05-24T06:47:59;99748.16;;;14.43;53.29
43147;BME280;28752;48.266;7.402;2023-05-24T06:50:25;99753.34;;;14.45;53.87
43147;BME280;28752;48.266;7.402;2023-05-24T06:52:51;99749.28;;;14.24;54.34
43147;BME280;28752;48.266;7.402;2023-05-24T06:55:18;99763.63;;;14.31;53.88
43147;BME280;28752;48.266;7.402;2023-05-24T06:57:44;99765.75;;;14.19;53.80
43147;BME280;28752;48.266;7.402;2023-05-24T07:00:10;99755.53;;;13.98;54.39
43147;BME280;28752;48.266;7.402;2023-05-24T07:02:37;99765.84;;;14.01;54.29
43147;BME280;28752;48.266;7.402;2023-05-24T07:05:03;99764.69;;;14.04;54.03
43147;BME280;28752;48.266;7.402;2023-05-24T07:07:29;99769.09;;;14.21;53.96
43147;BME280;28752;48.266;7.402;2023-05-24T07:09:54;99766.91;;;14.17;54.54
43147;BME280;28752;48.266;7.402;2023-05-24T07:12:20;99776.34;;;14.03;54.22
43147;BME280;28752;48.266;7.402;2023-05-24T07:14:45;99776.13;;;13.96;54.70
43147;BME280;28752;48.266;7.402;2023-05-24T07:17:10;99775.94;;;14.32;54.20
43147;BME280;28752;48.266;7.402;2023-05-24T07:19:36;99774.03;;;14.16;53.93
43147;BME280;28752;48.266;7.402;2023-05-24T07:22:01;99787.19;;;14.18;53.99
43147;BME280;28752;48.266;7.402;2023-05-24T07:24:27;99777.81;;;14.48;53.73
43147;BME280;28752;48.266;7.402;2023-05-24T07:26:52;99783.69;;;14.60;53.41
43147;BME280;28752;48.266;7.402;2023-05-24T07:29:18;99784.84;;;14.57;53.18
43147;BME280;28752;48.266;7.402;2023-05-24T07:31:45;99797.72;;;14.70;53.12
43147;BME280;28752;48.266;7.402;2023-05-24T07:34:12;99777.59;;;14.84;52.84
43147;BME280;28752;48.266;7.402;2023-05-24T07:36:37;99795.09;;;14.87;52.29
43147;BME280;28752;48.266;7.402;2023-05-24T07:39:05;99796.69;;;14.63;53.05
43147;BME280;28752;48.266;7.402;2023-05-24T07:41:30;99796.06;;;14.86;52.70
43147;BME280;28752;48.266;7.402;2023-05-24T07:43:57;99790.06;;;14.75;52.57
43147;BME280;28752;48.266;7.402;2023-05-24T07:46:22;99791.28;;;14.89;52.59
43147;BME280;28752;48.266;7.402;2023-05-24T07:48:49;99789.72;;;15.86;51.14
43147;BME280;28752;48.266;7.402;2023-05-24T07:51:14;99794.88;;;15.87;50.30
43147;BME280;28752;48.266;7.402;2023-05-24T07:53:40;99784.69;;;16.30;49.60
43147;BME280;28752;48.266;7.402;2023-05-24T07:56:05;99783.06;;;16.52;48.45
43147;BME280;28752;48.266;7.402;2023-05-24T07:58:32;99782.88;;;16.85;48.46
43147;BME280;28752;48.266;7.402;2023-05-24T08:00:57;99787.47;;;17.38;47.93
43147;BME280;28752;48.266;7.402;2023-05-24T08:03:22;99778.47;;;16.93;47.26
43147;BME280;28752;48.266;7.402;2023-05-24T08:05:50;99787.41;;;17.46;47.14
43147;BME280;28752;48.266;7.402;2023-05-24T08:08:15;99785.34;;;17.33;46.63
43147;BME280;28752;48.266;7.402;2023-05-24T08:10:40;99788.78;;;17.42;46.87
43147;BME280;28752;48.266;7.402;2023-05-24T08:13:06;99774.81;;;16.94;46.53
43147;BME280;28752;48.266;7.402;2023-05-24T08:15:31;99777.38;;;16.79;47.31
43147;BME280;28752;48.266;7.402;2023-05-24T08:17:57;99771.09;;;17.18;46.75
43147;BME280;28752;48.266;7.402;2023-05-24T08:20:22;99794.31;;;16.71;47.87
43147;BME280;28752;48.266;7.402;2023-05-24T08:22:47;99785.13;;;16.74;48.61
43147;BME280;28752;48.266;7.402;2023-05-24T08:25:13;99788.59;;;16.51;49.03
43147;BME280;28752;48.266;7.402;2023-05-24T08:27:39;99795.47;;;16.45;49.02
43147;BME280;28752;48.266;7.402;2023-05-24T08:30:05;99795.38;;;16.30;49.51
43147;BME280;28752;48.266;7.402;2023-05-24T08:32:31;99796.66;;;16.03;49.76
43147;BME280;28752;48.266;7.402;2023-05-24T08:34:57;99803.19;;;16.01;50.21
43147;BME280;28752;48.266;7.402;2023-05-24T08:37:22;99806.09;;;15.50;51.40
43147;BME280;28752;48.266;7.402;2023-05-24T08:39:48;99813.09;;;15.51;51.23
43147;BME280;28752;48.266;7.402;2023-05-24T08:42:14;99815.78;;;15.34;50.70
43147;BME280;28752;48.266;7.402;2023-05-24T08:44:47;99823.44;;;15.54;51.02
43147;BME280;28752;48.266;7.402;2023-05-24T08:47:19;99823.28;;;15.55;51.00
43147;BME280;28752;48.266;7.402;2023-05-24T08:49:46;99822.09;;;15.66;51.05
43147;BME280;28752;48.266;7.402;2023-05-24T08:52:12;99817.28;;;15.37;51.27
43147;BME280;28752;48.266;7.402;2023-05-24T08:54:39;99819.63;;;15.40;51.32
43147;BME280;28752;48.266;7.402;2023-05-24T08:57:05;99816.41;;;15.53;50.87
43147;BME280;28752;48.266;7.402;2023-05-24T08:59:31;99810.94;;;15.30;50.94
43147;BME280;28752;48.266;7.402;2023-05-24T09:01:57;99827.91;;;15.70;50.61
43147;BME280;28752;48.266;7.402;2023-05-24T09:04:26;99820.91;;;15.77;49.10
43147;BME280;28752;48.266;7.402;2023-05-24T09:06:53;99817.22;;;15.94;49.96
43147;BME280;28752;48.266;7.402;2023-05-24T09:09:20;99825.25;;;15.86;49.68
43147;BME280;28752;48.266;7.402;2023-05-24T09:11:48;99823.25;;;16.36;49.36
43147;BME280;28752;48.266;7.402;2023-05-24T09:14:15;99823.03;;;16.77;48.39
43147;BME280;28752;48.266;7.402;2023-05-24T09:16:42;99816.38;;;17.43;47.40
43147;BME280;28752;48.266;7.402;2023-05-24T09:19:08;99818.63;;;18.07;45.98
43147;BME280;28752;48.266;7.402;2023-05-24T09:21:33;99809.72;;;17.91;45.52
43147;BME280;28752;48.266;7.402;2023-05-24T09:23:59;99822.75;;;17.94;45.42
43147;BME280;28752;48.266;7.402;2023-05-24T09:26:26;99810.59;;;17.16;45.71
43147;BME280;28752;48.266;7.402;2023-05-24T09:28:54;99798.31;;;17.07;45.74
43147;BME280;28752;48.266;7.402;2023-05-24T09:31:31;99800.25;;;16.90;46.85
43147;BME280;28752;48.266;7.402;2023-05-24T09:33:57;99799.72;;;17.32;46.39
43147;BME280;28752;48.266;7.402;2023-05-24T09:36:22;99817.00;;;17.30;45.92
43147;BME280;28752;48.266;7.402;2023-05-24T09:38:48;99806.44;;;17.13;45.46
43147;BME280;28752;48.266;7.402;2023-05-24T09:41:14;99799.59;;;16.87;45.79
43147;BME280;28752;48.266;7.402;2023-05-24T09:43:47;99801.97;;;16.74;46.25
43147;BME280;28752;48.266;7.402;2023-05-24T09:46:19;99803.16;;;16.72;47.05
43147;BME280;28752;48.266;7.402;2023-05-24T09:48:58;99810.19;;;16.41;47.13
43147;BME280;28752;48.266;7.402;2023-05-24T09:51:24;99798.13;;;16.54;47.32
43147;BME280;28752;48.266;7.402;2023-05-24T09:53:55;99800.16;;;16.75;48.14
43147;BME280;28752;48.266;7.402;2023-05-24T09:56:21;99802.84;;;16.35;48.38
43147;BME280;28752;48.266;7.402;2023-05-24T09:58:47;99796.81;;;16.73;47.30
43147;BME280;28752;48.266;7.402;2023-05-24T10:01:14;99798.22;;;17.15;47.17
43147;BME280;28752;48.266;7.402;2023-05-24T10:04:00;99790.56;;;17.12;45.92
43147;BME280;28752;48.266;7.402;2023-05-24T10:06:32;99801.03;;;17.36;45.47
43147;BME280;28752;48.266;7.402;2023-05-24T10:09:02;99796.38;;;17.38;45.45
43147;BME280;28752;48.266;7.402;2023-05-24T10:11:32;99796.41;;;17.83;44.57
43147;BME280;28752;48.266;7.402;2023-05-24T10:13:58;99811.09;;;17.72;44.64
43147;BME280;28752;48.266;7.402;2023-05-24T10:16:24;99815.34;;;17.29;44.38
43147;BME280;28752;48.266;7.402;2023-05-24T10:18:49;99800.50;;;17.41;44.10
43147;BME280;28752;48.266;7.402;2023-05-24T10:21:16;99803.03;;;17.57;44.10
43147;BME280;28752;48.266;7.402;2023-05-24T10:23:50;99795.22;;;17.86;44.19
43147;BME280;28752;48.266;7.402;2023-05-24T10:26:16;99811.66;;;18.13;43.13
43147;BME280;28752;48.266;7.402;2023-05-24T10:28:47;99795.63;;;18.49;43.29
43147;BME280;28752;48.266;7.402;2023-05-24T10:31:24;99807.25;;;18.20;42.62
43147;BME280;28752;48.266;7.402;2023-05-24T10:33:52;99803.56;;;18.06;42.61
43147;BME280;28752;48.266;7.402;2023-05-24T10:36:21;99804.97;;;18.53;42.71
43147;BME280;28752;48.266;7.402;2023-05-24T10:38:47;99805.16;;;18.52;42.28
43147;BME280;28752;48.266;7.402;2023-05-24T10:41:12;99813.41;;;18.35;41.26
43147;BME280;28752;48.266;7.402;2023-05-24T10:43:38;99804.53;;;18.35;41.14
43147;BME280;28752;48.266;7.402;2023-05-24T10:46:06;99814.38;;;18.64;40.55
43147;BME280;28752;48.266;7.402;2023-05-24T10:48:33;99818.50;;;18.81;40.61
43147;BME280;28752;48.266;7.402;2023-05-24T10:53:52;99804.91;;;19.05;40.64
43147;BME280;28752;48.266;7.402;2023-05-24T10:56:20;99783.63;;;18.81;40.61
43147;BME280;28752;48.266;7.402;2023-05-24T11:01:42;99807.94;;;18.95;39.83
43147;BME280;28752;48.266;7.402;2023-05-24T11:04:14;99807.47;;;19.13;39.75
43147;BME280;28752;48.266;7.402;2023-05-24T11:06:56;99814.28;;;19.65;38.02
43147;BME280;28752;48.266;7.402;2023-05-24T11:09:23;99806.56;;;19.27;37.34
43147;BME280;28752;48.266;7.402;2023-05-24T11:11:53;99818.19;;;19.34;38.83
43147;BME280;28752;48.266;7.402;2023-05-24T11:14:23;99801.69;;;19.66;38.87
43147;BME280;28752;48.266;7.402;2023-05-24T11:16:49;99811.44;;;19.74;38.96
43147;BME280;28752;48.266;7.402;2023-05-24T11:19:35;99824.31;;;19.50;37.24
43147;BME280;28752;48.266;7.402;2023-05-24T11:22:03;99802.75;;;19.43;37.86
43147;BME280;28752;48.266;7.402;2023-05-24T11:24:28;99807.88;;;18.73;39.33
43147;BME280;28752;48.266;7.402;2023-05-24T11:26:54;99804.97;;;19.11;39.13
43147;BME280;28752;48.266;7.402;2023-05-24T11:29:21;99803.81;;;18.99;37.54
43147;BME280;28752;48.266;7.402;2023-05-24T11:31:54;99797.97;;;18.74;34.38
43147;BME280;28752;48.266;7.402;2023-05-24T11:34:22;99788.59;;;18.85;35.64
43147;BME280;28752;48.266;7.402;2023-05-24T11:36:49;99787.50;;;18.79;36.37
43147;BME280;28752;48.266;7.402;2023-05-24T11:39:16;99790.22;;;19.00;36.99
43147;BME280;28752;48.266;7.402;2023-05-24T11:41:42;99788.69;;;18.55;38.12
43147;BME280;28752;48.266;7.402;2023-05-24T11:44:09;99786.59;;;18.72;39.13
43147;BME280;28752;48.266;7.402;2023-05-24T11:46:36;99783.38;;;18.25;38.18
43147;BME280;28752;48.266;7.402;2023-05-24T11:49:03;99769.91;;;18.03;36.42
43147;BME280;28752;48.266;7.402;2023-05-24T11:51:30;99777.75;;;18.20;35.03
43147;BME280;28752;48.266;7.402;2023-05-24T11:53:56;99764.59;;;18.40;35.03
43147;BME280;28752;48.266;7.402;2023-05-24T11:56:22;99759.91;;;18.27;35.13
43147;BME280;28752;48.266;7.402;2023-05-24T11:58:48;99766.00;;;18.36;36.45
43147;BME280;28752;48.266;7.402;2023-05-24T12:01:24;99758.44;;;18.09;35.28
43147;BME280;28752;48.266;7.402;2023-05-24T12:03:51;99753.41;;;18.00;35.57
43147;BME280;28752;48.266;7.402;2023-05-24T12:06:20;99751.72;;;17.99;36.10
43147;BME280;28752;48.266;7.402;2023-05-24T12:08:46;99742.56;;;17.63;36.38
43147;BME280;28752;48.266;7.402;2023-05-24T12:11:13;99740.41;;;17.88;33.90
43147;BME280;28752;48.266;7.402;2023-05-24T12:13:38;99737.22;;;17.78;31.77
43147;BME280;28752;48.266;7.402;2023-05-24T12:16:04;99737.66;;;17.82;31.57
43147;BME280;28752;48.266;7.402;2023-05-24T12:18:30;99739.44;;;17.89;33.09
43147;BME280;28752;48.266;7.402;2023-05-24T12:20:56;99726.50;;;17.78;31.86
43147;BME280;28752;48.266;7.402;2023-05-24T12:23:23;99726.59;;;18.15;32.78
43147;BME280;28752;48.266;7.402;2023-05-24T12:25:49;99733.09;;;17.90;35.37
43147;BME280;28752;48.266;7.402;2023-05-24T12:28:18;99719.00;;;17.88;35.19
43147;BME280;28752;48.266;7.402;2023-05-24T12:30:48;99717.34;;;17.87;36.08
43147;BME280;28752;48.266;7.402;2023-05-24T12:33:14;99715.31;;;18.19;38.22
43147;BME280;28752;48.266;7.402;2023-05-24T12:35:40;99714.06;;;18.22;36.13
43147;BME280;28752;48.266;7.402;2023-05-24T12:38:07;99688.22;;;18.14;35.66
43147;BME280;28752;48.266;7.402;2023-05-24T12:40:33;99705.41;;;18.41;36.17
43147;BME280;28752;48.266;7.402;2023-05-24T12:42:58;99703.63;;;18.27;35.68
43147;BME280;28752;48.266;7.402;2023-05-24T12:45:25;99690.56;;;18.60;34.80
43147;BME280;28752;48.266;7.402;2023-05-24T12:47:55;99694.78;;;18.48;36.36
43147;BME280;28752;48.266;7.402;2023-05-24T12:50:23;99695.53;;;18.63;35.00
43147;BME280;28752;48.266;7.402;2023-05-24T12:52:49;99688.00;;;18.74;35.20
43147;BME280;28752;48.266;7.402;2023-05-24T12:55:19;99693.69;;;18.64;35.79
43147;BME280;28752;48.266;7.402;2023-05-24T12:57:45;99699.91;;;18.64;34.64
43147;BME280;28752;48.266;7.402;2023-05-24T13:00:18;99695.34;;;18.65;34.72
43147;BME280;28752;48.266;7.402;2023-05-24T13:02:44;99693.50;;;18.87;35.88
43147;BME280;28752;48.266;7.402;2023-05-24T13:05:09;99691.56;;;18.81;35.60
43147;BME280;28752;48.266;7.402;2023-05-24T13:07:36;99699.25;;;19.06;35.61
43147;BME280;28752;48.266;7.402;2023-05-24T13:10:03;99698.59;;;18.82;35.21
43147;BME280;28752;48.266;7.402;2023-05-24T13:12:28;99687.28;;;19.08;34.90
43147;BME280;28752;48.266;7.402;2023-05-24T13:14:54;99698.78;;;19.02;34.91
43147;BME280;28752;48.266;7.402;2023-05-24T13:17:19;99692.41;;;19.03;34.54
43147;BME280;28752;48.266;7.402;2023-05-24T13:19:45;99684.78;;;19.07;33.97
43147;BME280;28752;48.266;7.402;2023-05-24T13:22:11;99690.13;;;19.00;32.35
43147;BME280;28752;48.266;7.402;2023-05-24T13:24:37;99688.13;;;18.65;31.74